Time;durP1;ratioP1;P1;durP2;ratioP2;P2;SDS_P1;SDS_P2;PMS_P1;PMS_P2;Temp;Humidity;BMP_temperature;BMP_pressure;BME280_temperature;BME280_humidity;BME280_pressure;Samples;Min_cycle;Max_cycle;Signal;HPM_P1;HPM_P2
2022/12/13 00:01:51;;;;;;;51.90;26.63;;;-5.10;99.90;;;;;;5086523;28;20052;-33
2022/12/13 00:04:19;;;;;;;49.42;25.10;;;-5.10;99.90;;;;;;5071705;28;20471;-33
2022/12/13 00:06:45;;;;;;;50.55;25.95;;;-5.10;99.90;;;;;;5036664;28;20493;-32
2022/12/13 00:09:21;;;;;;;51.53;24.98;;;-5.10;99.90;;;;;;5012032;28;20134;-33
2022/12/13 00:14:04;;;;;;;52.00;25.15;;;-5.10;99.90;;;;;;5205999;27;20128;-33
2022/12/13 00:16:30;;;;;;;45.72;23.13;;;-5.10;99.90;;;;;;5149124;27;20042;-34
2022/12/13 00:18:58;;;;;;;44.95;24.42;;;-5.20;99.90;;;;;;5126523;28;20401;-33
2022/12/13 00:21:27;;;;;;;49.13;25.27;;;-5.20;99.90;;;;;;5108422;28;20201;-33
2022/12/13 00:23:53;;;;;;;46.53;24.27;;;-5.20;99.90;;;;;;5097198;28;20041;-33
2022/12/13 00:26:22;;;;;;;45.67;24.98;;;-5.20;99.90;;;;;;5066284;28;20034;-35
2022/12/13 00:28:50;;;;;;;48.88;24.15;;;-5.20;99.90;;;;;;5017902;28;20048;-32
2022/12/13 00:31:17;;;;;;;46.30;24.50;;;-5.20;99.90;;;;;;5005399;28;20035;-33
2022/12/13 00:33:54;;;;;;;45.60;23.85;;;-5.30;99.90;;;;;;5195262;27;20132;-33
2022/12/13 00:36:20;;;;;;;47.83;25.75;;;-5.30;99.90;;;;;;5157158;27;20046;-34
2022/12/13 00:38:59;;;;;;;48.50;23.00;;;-5.30;99.90;;;;;;5170248;27;20045;-33
2022/12/13 00:41:27;;;;;;;48.05;24.85;;;-5.30;99.90;;;;;;5140170;27;20035;-34
2022/12/13 00:43:53;;;;;;;51.53;25.10;;;-5.30;99.90;;;;;;5127378;27;20040;-33
2022/12/13 00:46:21;;;;;;;52.15;26.05;;;-5.30;99.90;;;;;;5081745;28;20417;-33
2022/12/13 00:48:53;;;;;;;43.92;23.08;;;-5.30;99.90;;;;;;5105973;28;20499;-34
2022/12/13 00:51:20;;;;;;;48.20;24.75;;;-5.30;99.90;;;;;;5069310;28;20059;-32
2022/12/13 00:53:46;;;;;;;46.47;23.67;;;-5.30;99.90;;;;;;5042917;28;20046;-33
2022/12/13 00:59:12;;;;;;;43.80;22.77;;;-5.30;99.90;;;;;;5193755;27;20594;-33
2022/12/13 01:01:37;;;;;;;44.47;23.90;;;-5.40;99.90;;;;;;5148095;27;20039;-34
2022/12/13 01:04:04;;;;;;;43.13;22.88;;;-5.40;99.90;;;;;;5138676;27;20042;-33
2022/12/13 01:06:37;;;;;;;47.65;23.33;;;-5.40;99.90;;;;;;5149642;27;20078;-34
2022/12/13 01:09:06;;;;;;;45.58;21.73;;;-5.40;99.90;;;;;;5123593;27;20397;-34
2022/12/13 01:11:33;;;;;;;47.92;22.88;;;-5.40;99.90;;;;;;5116841;27;20123;-35
2022/12/13 01:13:58;;;;;;;44.35;24.27;;;-5.40;99.90;;;;;;5081506;28;20075;-35
2022/12/13 01:16:24;;;;;;;45.53;24.20;;;-5.40;99.90;;;;;;5050317;28;20495;-34
2022/12/13 01:19:01;;;;;;;47.10;23.48;;;-5.40;99.90;;;;;;4940494;28;20058;-34
2022/12/13 01:24:02;;;;;;;43.65;21.98;;;-5.40;99.90;;;;;;5204078;27;20132;-33
2022/12/13 01:26:28;;;;;;;42.53;22.55;;;-5.40;99.90;;;;;;5170464;27;20500;-33
2022/12/13 01:28:54;;;;;;;42.10;21.30;;;-5.50;99.90;;;;;;5157003;27;20099;-33
2022/12/13 01:31:20;;;;;;;46.60;22.60;;;-5.50;99.90;;;;;;5152659;27;20042;-35
2022/12/13 01:33:46;;;;;;;39.22;22.95;;;-5.40;99.90;;;;;;5142408;27;20055;-33
2022/12/13 01:36:21;;;;;;;45.58;23.52;;;-5.40;99.90;;;;;;5123887;27;20043;-33
2022/12/13 01:38:46;;;;;;;44.47;22.65;;;-5.40;99.90;;;;;;5095048;28;20054;-33
2022/12/13 01:41:15;;;;;;;45.08;25.13;;;-5.40;99.90;;;;;;5033503;28;20057;-33
2022/12/13 01:43:41;;;;;;;40.05;21.30;;;-5.40;99.90;;;;;;5019144;28;20070;-34
2022/12/13 01:49:00;;;;;;;41.35;23.00;;;-5.40;99.90;;;;;;5213113;27;20341;-33
2022/12/13 01:51:38;;;;;;;39.50;23.00;;;-5.50;99.90;;;;;;5120641;27;20109;-34
2022/12/13 01:54:07;;;;;;;46.08;23.80;;;-5.50;99.90;;;;;;5092173;28;20040;-34
2022/12/13 01:56:39;;;;;;;49.50;25.45;;;-5.50;99.90;;;;;;5100584;28;20048;-33
2022/12/13 01:59:07;;;;;;;49.40;24.10;;;-5.50;99.90;;;;;;5066156;28;20459;-33
2022/12/13 02:01:33;;;;;;;46.50;24.65;;;-5.50;99.90;;;;;;5023984;28;20065;-34
2022/12/13 02:03:59;;;;;;;48.63;25.02;;;-5.50;99.90;;;;;;4996621;28;20053;-34
2022/12/13 02:06:34;;;;;;;44.80;23.35;;;-5.50;99.90;;;;;;5010722;28;20154;-35
2022/12/13 02:09:01;;;;;;;39.90;24.50;;;-5.50;99.90;;;;;;4851229;29;20049;-33
2022/12/13 02:13:59;;;;;;;45.38;21.65;;;-5.50;99.90;;;;;;5195403;27;20131;-32
2022/12/13 02:16:43;;;;;;;39.13;22.15;;;-5.50;99.90;;;;;;5169528;27;20038;-33
2022/12/13 02:19:36;;;;;;;51.10;23.48;;;-5.60;99.90;;;;;;5113481;28;20047;-34
2022/12/13 02:22:37;;;;;;;44.58;22.88;;;-5.60;99.90;;;;;;5080222;28;20045;-33
2022/12/13 02:25:22;;;;;;;41.53;22.42;;;-5.60;99.90;;;;;;4897701;28;20227;-33
2022/12/13 02:28:19;;;;;;;44.80;22.98;;;-5.70;99.90;;;;;;4903805;29;20044;-33
2022/12/13 02:30:53;;;;;;;41.17;20.83;;;-5.70;99.90;;;;;;4762126;29;20135;-32
2022/12/13 02:33:36;;;;;;;40.80;22.95;;;-5.70;99.90;;;;;;4693883;30;20393;-34
2022/12/13 02:36:01;;;;;;;40.83;21.77;;;-5.70;99.90;;;;;;4674662;30;20385;-32
2022/12/13 02:38:45;;;;;;;42.92;21.13;;;-5.70;99.90;;;;;;5203946;27;20132;-33
2022/12/13 02:41:35;;;;;;;38.55;21.20;;;-5.70;99.90;;;;;;5124574;28;20044;-33
2022/12/13 02:44:10;;;;;;;43.60;22.02;;;-5.80;99.90;;;;;;5106826;28;20047;-34
2022/12/13 02:46:42;;;;;;;38.65;21.58;;;-5.80;99.90;;;;;;5081884;28;20040;-33
2022/12/13 02:49:09;;;;;;;38.00;20.23;;;-5.80;99.90;;;;;;5077248;28;20055;-33
2022/12/13 02:51:37;;;;;;;42.33;21.42;;;-5.80;99.90;;;;;;5081961;28;20052;-32
2022/12/13 02:54:03;;;;;;;42.00;22.75;;;-5.80;99.90;;;;;;5062413;28;20060;-32
2022/12/13 02:56:31;;;;;;;41.25;21.67;;;-5.80;99.90;;;;;;5069553;28;20042;-34
2022/12/13 02:58:59;;;;;;;44.05;21.77;;;-5.80;99.90;;;;;;5047177;28;20123;-33
2022/12/13 03:02:20;;;;;;;43.50;22.92;;;-5.80;99.90;;;;;;5196613;27;20136;-33
2022/12/13 03:08:06;;;;;;;40.75;21.10;;;-5.90;99.90;;;;;;5099575;28;20051;-33
2022/12/13 03:10:42;;;;;;;40.53;21.77;;;-5.90;99.90;;;;;;5059496;28;20330;-33
2022/12/13 03:16:35;;;;;;;41.45;23.17;;;-5.90;99.90;;;;;;4979553;28;20117;-33
2022/12/13 03:19:04;;;;;;;43.28;24.02;;;-6.00;99.90;;;;;;4812468;29;20150;-32
2022/12/13 03:21:44;;;;;;;40.80;22.67;;;-6.00;99.90;;;;;;4750541;29;20103;-32
2022/12/13 03:27:04;;;;;;;42.10;23.40;;;-6.00;99.90;;;;;;5197716;27;20152;-33
2022/12/13 03:29:30;;;;;;;49.53;24.98;;;-6.00;99.90;;;;;;5152682;27;20480;-33
2022/12/13 03:31:55;;;;;;;39.25;22.05;;;-6.00;99.90;;;;;;5127273;27;20043;-33
2022/12/13 03:34:21;;;;;;;45.90;24.42;;;-6.00;99.90;;;;;;5128328;27;20120;-32
2022/12/13 03:36:47;;;;;;;44.90;23.85;;;-6.00;99.90;;;;;;5105193;28;20038;-33
2022/12/13 03:39:13;;;;;;;43.75;24.27;;;-5.90;99.90;;;;;;5083958;28;20052;-33
2022/12/13 03:41:39;;;;;;;45.80;23.02;;;-5.90;99.90;;;;;;5048359;28;20096;-34
2022/12/13 03:44:07;;;;;;;52.58;25.95;;;-6.00;99.90;;;;;;5049283;28;20048;-33
2022/12/13 03:46:33;;;;;;;53.97;26.05;;;-6.00;99.90;;;;;;5048647;28;20050;-33
2022/12/13 03:48:59;;;;;;;46.33;26.45;;;-5.90;99.90;;;;;;5014648;28;20651;-34
2022/12/13 03:51:36;;;;;;;50.72;25.85;;;-5.90;99.90;;;;;;5198906;27;20129;-33
2022/12/13 03:54:02;;;;;;;47.13;24.75;;;-6.00;99.90;;;;;;5111013;27;20039;-34
2022/12/13 03:56:28;;;;;;;48.55;25.33;;;-6.00;99.90;;;;;;5145876;27;20108;-33
2022/12/13 03:58:54;;;;;;;51.67;26.35;;;-6.00;99.90;;;;;;5130507;27;20042;-33
2022/12/13 04:01:20;;;;;;;49.72;25.20;;;-6.00;99.90;;;;;;5089760;28;20033;-32
2022/12/13 04:03:46;;;;;;;47.88;24.15;;;-6.00;99.90;;;;;;5056009;28;20048;-33
2022/12/13 04:06:14;;;;;;;46.55;25.92;;;-6.10;99.90;;;;;;5018819;28;20061;-33
2022/12/13 04:08:40;;;;;;;49.53;26.95;;;-6.10;99.90;;;;;;5033543;28;20052;-33
2022/12/13 04:13:52;;;;;;;56.20;28.70;;;-6.10;99.90;;;;;;4982106;28;20469;-33
2022/12/13 04:16:25;;;;;;;57.83;27.80;;;-6.10;99.90;;;;;;5167914;27;20589;-33
2022/12/13 04:18:51;;;;;;;56.78;26.65;;;-6.10;99.90;;;;;;5106655;28;20031;-33
2022/12/13 04:21:16;;;;;;;59.17;28.77;;;-6.00;99.90;;;;;;5116633;27;20042;-33
2022/12/13 04:23:42;;;;;;;51.70;27.25;;;-6.00;99.90;;;;;;5090880;28;20045;-33
2022/12/13 04:26:09;;;;;;;53.67;27.20;;;-6.10;99.90;;;;;;5061449;28;20129;-33
2022/12/13 04:28:35;;;;;;;54.65;27.73;;;-6.00;99.90;;;;;;5026659;28;20045;-32
2022/12/13 04:31:00;;;;;;;55.75;26.48;;;-6.10;99.90;;;;;;5030134;28;20545;-32
2022/12/13 04:33:26;;;;;;;52.80;27.15;;;-6.10;99.90;;;;;;5016938;28;20100;-32
2022/12/13 04:35:52;;;;;;;53.28;27.25;;;-6.10;99.90;;;;;;5016461;28;20503;-33
2022/12/13 04:38:18;;;;;;;54.92;26.20;;;-6.10;99.90;;;;;;4974978;28;20070;-32
2022/12/13 04:41:14;;;;;;;53.58;26.52;;;-6.10;99.90;;;;;;5187366;27;20149;-33
2022/12/13 04:43:40;;;;;;;55.13;27.02;;;-6.20;99.90;;;;;;5134433;27;20050;-34
2022/12/13 04:46:05;;;;;;;50.22;25.20;;;-6.20;99.90;;;;;;5144104;27;20515;-35
2022/12/13 04:48:32;;;;;;;47.10;25.77;;;-6.10;99.90;;;;;;5148660;27;20038;-32
2022/12/13 04:50:58;;;;;;;49.92;24.42;;;-6.10;99.90;;;;;;5096436;28;20398;-32
2022/12/13 04:53:24;;;;;;;46.20;26.45;;;-6.10;99.90;;;;;;5085306;28;20045;-33
2022/12/13 04:55:50;;;;;;;55.08;28.00;;;-6.10;99.90;;;;;;5089838;27;20053;-34
2022/12/13 04:58:16;;;;;;;56.65;27.27;;;-6.10;99.90;;;;;;5093394;28;20490;-33
2022/12/13 05:00:51;;;;;;;54.65;27.02;;;-6.10;99.90;;;;;;5051050;28;20065;-33
2022/12/13 05:05:50;;;;;;;54.92;26.92;;;-6.00;99.90;;;;;;5213295;27;20127;-33
2022/12/13 05:08:16;;;;;;;53.28;27.30;;;-6.00;99.90;;;;;;5151772;27;20051;-32
2022/12/13 05:10:42;;;;;;;58.55;28.40;;;-5.90;99.90;;;;;;5133187;27;20377;-33
2022/12/13 05:13:08;;;;;;;60.17;29.05;;;-5.90;99.90;;;;;;5105668;28;20553;-33
2022/12/13 05:15:33;;;;;;;74.05;33.13;;;-5.90;99.90;;;;;;4964174;28;20040;-34
2022/12/13 05:18:04;;;;;;;68.10;31.77;;;-5.80;99.90;;;;;;4973364;28;20397;-33
2022/12/13 05:20:30;;;;;;;73.57;34.65;;;-5.70;99.90;;;;;;5005070;28;20464;-33
2022/12/13 05:22:57;;;;;;;63.33;31.55;;;-5.60;99.90;;;;;;4998426;28;20047;-33
2022/12/13 05:25:24;;;;;;;78.82;35.25;;;-5.60;99.90;;;;;;4990858;28;20053;-34
2022/12/13 05:27:50;;;;;;;92.70;37.40;;;-5.50;99.90;;;;;;4805340;29;20076;-33
2022/12/13 05:30:27;;;;;;;86.32;37.85;;;-5.40;99.90;;;;;;5197691;27;20132;-35
2022/12/13 05:32:52;;;;;;;87.50;38.20;;;-5.40;99.90;;;;;;5167398;27;20491;-32
2022/12/13 05:35:18;;;;;;;86.00;38.13;;;-5.30;99.90;;;;;;5165360;27;20125;-32
2022/12/13 05:37:45;;;;;;;79.15;35.85;;;-5.30;99.90;;;;;;5137626;27;20045;-33
2022/12/13 05:40:10;;;;;;;96.25;39.25;;;-5.30;99.90;;;;;;5113274;28;20090;-33
2022/12/13 05:42:38;;;;;;;98.55;41.13;;;-5.20;99.90;;;;;;5067289;28;20056;-33
2022/12/13 05:45:06;;;;;;;99.40;41.30;;;-5.20;99.90;;;;;;5072034;28;20039;-32
2022/12/13 05:47:32;;;;;;;102.68;42.38;;;-5.20;99.90;;;;;;5109074;28;20044;-33
2022/12/13 05:49:57;;;;;;;102.40;41.25;;;-5.20;99.90;;;;;;5092614;28;20044;-32
2022/12/13 05:52:23;;;;;;;92.60;42.30;;;-5.10;99.90;;;;;;5021258;28;20062;-32
2022/12/13 05:55:01;;;;;;;91.68;40.33;;;-5.10;99.90;;;;;;5212932;27;20131;-33
2022/12/13 05:57:27;;;;;;;94.60;41.45;;;-5.10;99.90;;;;;;5169849;27;20047;-32
2022/12/13 05:59:53;;;;;;;98.50;41.75;;;-5.10;99.90;;;;;;5143858;27;20121;-33
2022/12/13 06:02:19;;;;;;;101.20;42.47;;;-5.20;99.90;;;;;;5120776;27;20135;-33
2022/12/13 06:04:45;;;;;;;92.97;41.42;;;-5.20;99.90;;;;;;5079330;28;20572;-33
2022/12/13 06:07:11;;;;;;;111.80;44.55;;;-5.20;99.90;;;;;;5038793;28;20042;-33
2022/12/13 06:09:37;;;;;;;89.20;42.63;;;-5.20;99.90;;;;;;5009054;28;20076;-33
2022/12/13 06:12:02;;;;;;;97.22;43.60;;;-5.20;99.90;;;;;;4971805;28;20070;-33
2022/12/13 06:14:28;;;;;;;88.10;41.95;;;-5.20;99.90;;;;;;4920139;29;20047;-34
2022/12/13 06:16:54;;;;;;;86.55;38.88;;;-5.20;99.90;;;;;;4889748;29;20476;-33
2022/12/13 06:19:32;;;;;;;86.43;38.67;;;-5.30;99.90;;;;;;5203520;27;20474;-33
2022/12/13 06:21:57;;;;;;;80.45;37.33;;;-5.40;99.90;;;;;;5148981;27;20043;-33
2022/12/13 06:24:23;;;;;;;82.25;37.58;;;-5.40;99.90;;;;;;5135406;27;20037;-33
2022/12/13 06:26:50;;;;;;;82.93;36.85;;;-5.50;99.90;;;;;;5184086;27;20042;-34
2022/12/13 06:29:17;;;;;;;85.10;36.08;;;-5.50;99.90;;;;;;5162968;27;20043;-33
2022/12/13 06:31:43;;;;;;;74.22;37.60;;;-5.50;99.90;;;;;;5096747;28;20043;-33
2022/12/13 06:34:09;;;;;;;75.50;33.60;;;-5.60;99.90;;;;;;5091039;28;20457;-33
2022/12/13 06:36:35;;;;;;;76.57;35.95;;;-5.50;99.90;;;;;;5055528;28;20059;-33
2022/12/13 06:39:10;;;;;;;75.32;36.88;;;-5.60;99.90;;;;;;4929412;28;21559;-33
2022/12/13 06:44:14;;;;;;;73.07;34.85;;;-5.60;99.90;;;;;;5197428;27;20489;-33
2022/12/13 06:46:40;;;;;;;66.43;33.35;;;-5.70;99.90;;;;;;5145088;27;20035;-33
2022/12/13 06:49:05;;;;;;;66.68;33.90;;;-5.70;99.90;;;;;;5129074;27;20384;-33
2022/12/13 06:51:33;;;;;;;72.35;33.83;;;-5.70;99.90;;;;;;5171345;27;20034;-33
2022/12/13 06:54:03;;;;;;;68.53;33.03;;;-5.70;99.90;;;;;;5139827;27;20039;-33
2022/12/13 06:56:30;;;;;;;71.30;34.03;;;-5.80;99.90;;;;;;5050872;28;20128;-33
2022/12/13 06:58:56;;;;;;;75.45;35.10;;;-5.80;99.90;;;;;;5035170;28;20052;-33
2022/12/13 07:01:22;;;;;;;67.25;34.15;;;-5.80;99.90;;;;;;5054529;28;20120;-33
2022/12/13 07:03:48;;;;;;;62.22;33.53;;;-5.80;99.90;;;;;;5037023;28;20128;-34
2022/12/13 07:06:19;;;;;;;72.43;35.92;;;-5.90;99.90;;;;;;4919747;28;20048;-35
2022/12/13 07:08:57;;;;;;;73.60;35.63;;;-5.90;99.90;;;;;;5211487;27;20127;-36
2022/12/13 07:11:28;;;;;;;70.70;33.28;;;-5.90;99.90;;;;;;5157436;27;20055;-36
2022/12/13 07:13:54;;;;;;;72.78;35.70;;;-5.90;99.90;;;;;;5166986;27;20039;-37
2022/12/13 07:16:21;;;;;;;66.85;33.47;;;-6.00;99.90;;;;;;5121881;27;20051;-36
2022/12/13 07:18:52;;;;;;;82.85;35.92;;;-6.00;99.90;;;;;;5105868;28;20048;-35
2022/12/13 07:21:18;;;;;;;77.07;35.33;;;-6.00;99.90;;;;;;5078507;28;20125;-36
2022/12/13 07:23:43;;;;;;;89.68;42.58;;;-6.00;99.90;;;;;;5005547;28;20154;-36
2022/12/13 07:26:09;;;;;;;81.55;38.80;;;-6.00;99.90;;;;;;4880510;29;20144;-36
2022/12/13 07:28:36;;;;;;;83.03;39.92;;;-6.00;99.90;;;;;;4815480;29;20548;-35
2022/12/13 07:31:09;;;;;;;74.63;41.03;;;-5.90;99.90;;;;;;5174369;27;20486;-35
2022/12/13 07:33:36;;;;;;;81.13;37.95;;;-5.90;99.90;;;;;;5122743;27;20206;-35
2022/12/13 07:36:13;;;;;;;80.07;35.88;;;-5.90;99.90;;;;;;5103342;28;20451;-35
2022/12/13 07:38:39;;;;;;;81.85;37.85;;;-6.00;99.90;;;;;;5084034;28;20051;-35
2022/12/13 07:41:05;;;;;;;87.80;41.38;;;-6.00;99.90;;;;;;5018681;28;20388;-36
2022/12/13 07:43:31;;;;;;;69.35;37.20;;;-6.00;99.90;;;;;;4956532;28;20044;-37
2022/12/13 07:45:58;;;;;;;77.97;36.33;;;-6.00;99.90;;;;;;4918024;29;20182;-36
2022/12/13 07:48:25;;;;;;;72.65;35.35;;;-6.00;99.90;;;;;;4809058;29;20047;-36
2022/12/13 07:51:04;;;;;;;71.50;32.83;;;-6.00;99.90;;;;;;4706239;30;20066;-36
2022/12/13 07:56:10;;;;;;;77.28;37.60;;;-6.00;99.90;;;;;;5199803;27;20478;-35
2022/12/13 07:58:36;;;;;;;72.85;34.78;;;-6.00;99.90;;;;;;5122179;27;20552;-35
2022/12/13 08:01:08;;;;;;;76.13;36.13;;;-5.90;99.90;;;;;;5103724;28;20036;-35
2022/12/13 08:03:35;;;;;;;73.55;35.33;;;-5.90;99.90;;;;;;5083937;28;20058;-35
2022/12/13 08:06:03;;;;;;;69.15;34.22;;;-5.90;99.90;;;;;;5054939;28;20050;-35
2022/12/13 08:08:30;;;;;;;67.55;33.45;;;-5.90;99.90;;;;;;4974295;28;20066;-35
2022/12/13 08:11:02;;;;;;;70.53;33.88;;;-5.90;99.90;;;;;;4998092;28;20456;-35
2022/12/13 08:13:28;;;;;;;65.05;33.05;;;-5.80;99.90;;;;;;4943340;28;20051;-35
2022/12/13 08:16:09;;;;;;;69.53;35.17;;;-5.80;99.90;;;;;;5195911;27;20124;-37
2022/12/13 08:18:34;;;;;;;66.80;33.88;;;-5.90;99.90;;;;;;5130442;27;20411;-36
2022/12/13 08:21:05;;;;;;;71.80;37.00;;;-5.80;99.90;;;;;;5149503;27;20057;-36
2022/12/13 08:23:32;;;;;;;69.18;33.08;;;-5.80;99.90;;;;;;5147677;27;20122;-36
2022/12/13 08:25:59;;;;;;;70.88;33.85;;;-5.80;99.90;;;;;;5078107;28;20316;-36
2022/12/13 08:28:26;;;;;;;62.08;31.83;;;-5.70;99.90;;;;;;5046927;28;20559;-36
2022/12/13 08:30:52;;;;;;;68.47;32.78;;;-5.70;99.90;;;;;;5078105;28;20048;-36
2022/12/13 08:33:18;;;;;;;65.93;32.53;;;-5.80;99.90;;;;;;5005360;28;20057;-36
2022/12/13 08:35:45;;;;;;;64.00;32.55;;;-5.70;99.90;;;;;;4962316;28;20124;-36
2022/12/13 08:41:09;;;;;;;66.88;31.27;;;-5.70;99.90;;;;;;5179645;27;20133;-35
2022/12/13 08:43:36;;;;;;;66.50;33.45;;;-5.70;99.90;;;;;;5122384;27;20048;-33
2022/12/13 08:46:02;;;;;;;67.97;32.35;;;-5.70;99.90;;;;;;5103687;27;20473;-35
2022/12/13 08:48:29;;;;;;;68.40;32.40;;;-5.70;99.90;;;;;;5150837;27;20410;-34
2022/12/13 08:51:02;;;;;;;67.63;32.28;;;-5.60;99.90;;;;;;5144760;27;20044;-34
2022/12/13 08:53:28;;;;;;;65.13;32.40;;;-5.60;99.90;;;;;;5107309;28;20044;-34
2022/12/13 08:56:00;;;;;;;70.47;34.83;;;-5.60;99.90;;;;;;5103327;28;20540;-33
2022/12/13 08:58:26;;;;;;;68.07;32.03;;;-5.50;99.90;;;;;;5001088;28;20078;-33
2022/12/13 09:02:20;;;;;;;62.88;30.77;;;-5.50;99.90;;;;;;5205276;27;20124;-34
2022/12/13 09:04:46;;;;;;;63.65;32.22;;;-5.50;99.90;;;;;;5148545;27;20441;-35
2022/12/13 09:07:12;;;;;;;60.72;31.20;;;-5.40;99.90;;;;;;5151309;27;20095;-33
2022/12/13 09:09:38;;;;;;;61.28;30.63;;;-5.40;99.90;;;;;;5138746;27;20043;-33
2022/12/13 09:12:04;;;;;;;61.90;31.55;;;-5.40;99.90;;;;;;5053000;28;20494;-36
2022/12/13 09:14:30;;;;;;;65.03;32.42;;;-5.30;99.90;;;;;;5096041;28;20048;-33
2022/12/13 09:16:56;;;;;;;76.63;40.10;;;-5.30;99.90;;;;;;5075938;28;20052;-33
2022/12/13 09:19:24;;;;;;;72.55;38.17;;;-5.10;99.90;;;;;;5004428;28;20046;-32
2022/12/13 09:24:15;;;;;;;78.88;39.13;;;-5.00;99.90;;;;;;5214581;27;20119;-33
2022/12/13 09:26:41;;;;;;;90.68;43.60;;;-4.70;99.90;;;;;;5171565;27;20038;-33
2022/12/13 09:29:07;;;;;;;88.63;44.28;;;-4.40;99.90;;;;;;5169162;27;20053;-34
2022/12/13 09:31:34;;;;;;;91.20;48.38;;;-4.10;99.90;;;;;;5150499;27;20047;-33
2022/12/13 09:34:00;;;;;;;95.10;54.13;;;-3.70;99.90;;;;;;5130843;27;20042;-33
2022/12/13 09:36:26;;;;;;;114.60;63.08;;;-3.00;99.90;;;;;;5108509;27;20090;-33
2022/12/13 09:38:53;;;;;;;100.97;65.25;;;-2.10;99.90;;;;;;5063475;28;20060;-34
2022/12/13 09:41:25;;;;;;;76.43;44.13;;;-1.30;99.90;;;;;;5005573;28;20073;-33
2022/12/13 09:46:04;;;;;;;79.90;52.13;;;-0.60;99.90;;;;;;5212055;27;20407;-33
2022/12/13 09:48:31;;;;;;;70.97;40.88;;;0.20;99.90;;;;;;5156194;27;20042;-34
2022/12/13 09:50:56;;;;;;;68.72;42.83;;;0.60;99.90;;;;;;5125516;27;20049;-33
2022/12/13 09:53:22;;;;;;;63.10;39.70;;;0.80;99.90;;;;;;5070776;28;20127;-34
2022/12/13 09:55:51;;;;;;;59.22;35.65;;;1.30;99.90;;;;;;5070100;28;20038;-34
2022/12/13 09:58:19;;;;;;;58.30;34.05;;;1.60;99.90;;;;;;5050515;28;20393;-34
2022/12/13 10:00:47;;;;;;;48.22;30.27;;;2.10;99.90;;;;;;5070666;28;20045;-33
2022/12/13 10:03:15;;;;;;;56.35;35.42;;;2.50;99.90;;;;;;5052689;28;20058;-34
2022/12/13 10:07:58;;;;;;;62.58;40.17;;;2.50;99.90;;;;;;5202433;27;20597;-34
2022/12/13 10:10:25;;;;;;;59.65;37.33;;;2.20;99.90;;;;;;5131298;27;20048;-33
2022/12/13 10:13:23;;;;;;;63.38;40.22;;;1.70;99.90;;;;;;5167581;27;20114;-33
2022/12/13 10:15:56;;;;;;;59.72;36.65;;;1.40;99.90;;;;;;5047779;28;20106;-33
2022/12/13 10:18:35;;;;;;;59.90;37.67;;;1.00;99.90;;;;;;5056204;28;20037;-35
2022/12/13 10:21:06;;;;;;;59.88;37.72;;;0.80;99.90;;;;;;4956010;28;20071;-35
2022/12/13 10:23:32;;;;;;;62.28;39.13;;;0.50;99.90;;;;;;4869100;29;20061;-35
2022/12/13 10:25:58;;;;;;;55.70;34.33;;;0.20;99.90;;;;;;4783594;29;20488;-35
2022/12/13 10:28:38;;;;;;;53.05;34.35;;;0.10;99.90;;;;;;5187204;27;20489;-35
2022/12/13 10:31:04;;;;;;;57.72;33.22;;;-0.10;99.90;;;;;;5146564;27;20235;-35
2022/12/13 10:33:33;;;;;;;54.67;32.58;;;-0.20;99.90;;;;;;5132710;27;20043;-35
2022/12/13 10:36:28;;;;;;;57.75;34.47;;;-0.20;99.90;;;;;;5149205;27;20042;-36
2022/12/13 10:38:55;;;;;;;59.80;34.45;;;-0.10;99.90;;;;;;5066747;28;20042;-34
2022/12/13 10:41:28;;;;;;;56.67;34.55;;;-0.10;99.90;;;;;;4967553;28;20057;-36
2022/12/13 10:44:20;;;;;;;61.83;37.03;;;0.00;99.90;;;;;;4892285;29;20515;-37
2022/12/13 10:49:03;;;;;;;53.53;32.33;;;1.00;99.90;;;;;;5210527;27;20128;-33
2022/12/13 10:51:38;;;;;;;50.83;31.95;;;2.90;99.90;;;;;;5172396;27;20050;-35
2022/12/13 10:54:04;;;;;;;58.60;39.35;;;3.60;99.90;;;;;;5145948;27;20126;-35
2022/12/13 10:56:46;;;;;;;53.40;34.20;;;4.00;99.90;;;;;;5151027;27;20067;-35
2022/12/13 10:59:37;;;;;;;51.88;33.20;;;4.00;99.90;;;;;;5091718;28;20040;-34
2022/12/13 11:02:29;;;;;;;56.25;34.30;;;4.00;99.90;;;;;;5073653;28;20076;-34
2022/12/13 11:04:57;;;;;;;53.33;33.28;;;4.40;99.90;;;;;;4986042;28;20047;-35
2022/12/13 11:07:33;;;;;;;47.95;32.75;;;5.10;99.90;;;;;;4853800;29;20526;-34
2022/12/13 11:10:21;;;;;;;52.58;33.95;;;5.60;99.90;;;;;;5200378;27;20128;-35
2022/12/13 11:12:49;;;;;;;44.28;30.52;;;6.10;99.90;;;;;;5155773;27;20078;-35
2022/12/13 11:15:23;;;;;;;46.25;30.98;;;6.50;99.90;;;;;;5153444;27;20049;-35
2022/12/13 11:17:56;;;;;;;44.78;30.58;;;6.60;99.90;;;;;;5168738;27;20503;-34
2022/12/13 11:20:56;;;;;;;47.43;31.33;;;6.30;99.90;;;;;;5189315;27;20069;-34
2022/12/13 11:23:26;;;;;;;43.95;30.02;;;5.70;99.90;;;;;;5016860;28;20779;-33
2022/12/13 11:25:58;;;;;;;41.85;29.17;;;5.70;99.90;;;;;;4984165;28;20048;-35
2022/12/13 11:32:01;;;;;;;44.03;29.55;;;5.90;99.90;;;;;;5213393;27;20501;-35
2022/12/13 11:34:52;;;;;;;44.08;28.92;;;6.10;99.90;;;;;;5139278;27;20050;-35
2022/12/13 11:37:31;;;;;;;44.00;29.10;;;6.30;99.90;;;;;;5138408;27;20934;-34
2022/12/13 11:40:18;;;;;;;41.00;28.55;;;6.90;99.90;;;;;;5133404;27;20046;-34
2022/12/13 11:42:57;;;;;;;41.28;27.50;;;7.10;99.90;;;;;;5073280;28;20049;-35
2022/12/13 11:45:55;;;;;;;43.05;28.67;;;6.50;99.90;;;;;;4988075;28;20401;-34
2022/12/13 11:48:50;;;;;;;43.03;29.35;;;5.90;99.90;;;;;;4796263;29;20060;-37
2022/12/13 11:51:43;;;;;;;42.33;31.08;;;4.90;99.90;;;;;;5212264;27;20147;-35
2022/12/13 11:54:24;;;;;;;45.63;30.40;;;4.40;99.90;;;;;;5138906;27;20067;-36
2022/12/13 11:56:53;;;;;;;42.55;30.02;;;4.10;99.90;;;;;;5064616;28;20104;-35
2022/12/13 11:59:25;;;;;;;44.63;29.35;;;4.10;99.90;;;;;;5067899;28;20041;-35
2022/12/13 12:01:56;;;;;;;46.63;31.35;;;4.70;99.90;;;;;;5037509;28;20038;-35
2022/12/13 12:04:44;;;;;;;44.13;29.45;;;5.30;99.90;;;;;;4921177;29;20055;-35
2022/12/13 12:07:12;;;;;;;41.17;29.13;;;5.20;99.90;;;;;;4907034;28;20520;-36
2022/12/13 12:09:46;;;;;;;39.53;26.95;;;4.60;99.90;;;;;;4834623;29;20054;-35
2022/12/13 12:14:29;;;;;;;46.13;30.05;;;4.10;99.90;;;;;;5210848;27;20139;-36
2022/12/13 12:16:59;;;;;;;39.70;28.02;;;3.00;99.90;;;;;;5136116;27;20067;-34
2022/12/13 12:19:37;;;;;;;43.35;28.92;;;2.60;99.90;;;;;;5145075;27;20039;-35
2022/12/13 12:22:25;;;;;;;44.40;28.25;;;2.20;99.90;;;;;;5118357;27;20043;-35
2022/12/13 12:24:59;;;;;;;43.65;29.35;;;1.90;99.90;;;;;;5103078;28;20054;-35
2022/12/13 12:27:36;;;;;;;44.17;29.60;;;1.70;99.90;;;;;;5073705;28;20370;-34
2022/12/13 12:30:18;;;;;;;44.33;28.88;;;1.60;99.90;;;;;;5011900;28;20049;-34
2022/12/13 12:34:52;;;;;;;44.97;28.42;;;1.40;99.90;;;;;;5200354;27;20128;-35
2022/12/13 12:37:22;;;;;;;41.67;27.83;;;1.30;99.90;;;;;;5153412;27;20051;-34
2022/12/13 12:39:58;;;;;;;44.15;29.05;;;1.20;99.90;;;;;;5153402;27;20046;-35
2022/12/13 12:42:35;;;;;;;44.97;30.05;;;1.10;99.90;;;;;;5089811;28;20050;-34
2022/12/13 12:45:31;;;;;;;41.78;29.55;;;1.60;99.90;;;;;;5057772;28;20045;-34
2022/12/13 12:48:32;;;;;;;41.28;28.23;;;2.40;99.90;;;;;;4989620;28;22463;-34
2022/12/13 12:51:18;;;;;;;41.20;28.83;;;2.80;99.90;;;;;;4899114;29;20068;-34
2022/12/13 12:56:19;;;;;;;41.28;28.67;;;2.80;99.90;;;;;;5210943;27;20131;-34
2022/12/13 12:59:06;;;;;;;40.38;27.23;;;2.30;99.90;;;;;;5145936;27;20419;-34
2022/12/13 13:01:50;;;;;;;43.30;29.33;;;2.00;99.90;;;;;;5110855;27;20125;-33
2022/12/13 13:04:21;;;;;;;39.60;28.02;;;1.80;99.90;;;;;;5135798;27;20090;-34
2022/12/13 13:06:54;;;;;;;44.22;29.00;;;1.70;99.90;;;;;;5099661;28;20052;-34
2022/12/13 13:09:21;;;;;;;46.80;29.95;;;1.50;99.90;;;;;;4996488;28;20042;-35
2022/12/13 13:11:48;;;;;;;42.78;28.70;;;1.40;99.90;;;;;;5003154;28;20056;-34
2022/12/13 13:16:47;;;;;;;43.72;28.20;;;1.20;99.90;;;;;;5212910;27;20607;-34
2022/12/13 13:19:13;;;;;;;43.58;29.67;;;1.10;99.90;;;;;;5167162;27;20522;-34
2022/12/13 13:21:45;;;;;;;44.92;30.80;;;1.00;99.90;;;;;;5149972;27;20126;-36
2022/12/13 13:24:15;;;;;;;39.92;28.40;;;1.00;99.90;;;;;;5147755;27;20050;-35
2022/12/13 13:26:55;;;;;;;45.83;30.30;;;0.80;99.90;;;;;;5143043;27;20450;-34
2022/12/13 13:29:27;;;;;;;41.90;27.60;;;0.80;99.90;;;;;;5079679;28;20072;-36
2022/12/13 13:32:10;;;;;;;46.58;30.60;;;1.10;99.90;;;;;;5052156;28;20591;-34
2022/12/13 13:37:21;;;;;;;41.15;28.45;;;1.60;99.90;;;;;;5213227;27;20460;-35
2022/12/13 13:40:05;;;;;;;40.03;26.67;;;2.10;99.90;;;;;;5146940;27;20082;-35
2022/12/13 13:42:32;;;;;;;39.88;26.75;;;2.30;99.90;;;;;;5129074;27;20043;-35
2022/12/13 13:45:16;;;;;;;41.75;27.63;;;2.40;99.90;;;;;;5115832;28;20047;-35
2022/12/13 13:47:43;;;;;;;47.35;29.42;;;2.40;99.90;;;;;;5089947;28;20044;-34
2022/12/13 13:50:11;;;;;;;41.13;27.65;;;2.30;99.90;;;;;;4984393;28;20073;-34